Latest Weather Observations for Montague Island

IDN60801

Issued at 4:35 pm EST Wednesday 3 September 2014 (issued every 30 minutes, with the page automatically refreshed every 10 minutes)

About weather observations | Map of weather stations | Latest weather observations for NSW | Other Formats
Station Details ID: 069017 Name: MONTAGUE ISLAND LIGHTHOUSE Lat: -36.25 Lon: 150.23 Height: 52.0 m
Data from the previous 72 hours. | See also: Recent months at Montague Island
Date/Time
EST
Temp
°C
App
Temp
°C
Dew
Point
Rel
Hum
%
Delta-T
°C
Wind Press
QNH
hPa
Press
MSL
hPa
Rain
since 9 am
mm
Dir
 
Spd
km/h
Gust
km/h
Spd
kts
Gust
kts
03/04:32pm 12.7 3.3 7.0 68 2.8 SSW 46 65 25 35 1014.7 1014.6 0.6
03/04:30pm 12.6 2.8 6.9 68 2.7 SSW 48 65 26 35 1014.8 1014.7 0.6
03/04:00pm 12.5 2.4 7.6 72 2.4 SW 50 61 27 33 1014.1 1014.0 0.6
03/03:30pm 11.2 0.1 8.2 82 1.5 SSW 56 72 30 39 1014.1 1014.0 0.6
03/03:02pm 12.8 2.1 7.9 72 2.4 SW 54 72 29 39 1013.6 1013.5 0.2
03/03:00pm 12.6 1.4 7.7 72 2.4 SW 56 72 30 39 1013.5 1013.4 0.2
03/02:30pm 12.8 1.4 7.5 70 2.6 SSW 57 74 31 40 1013.7 1013.6 0.2
03/02:09pm 12.7 1.4 7.8 72 2.4 SSW 57 76 31 41 1013.7 1013.6 0.2
03/02:00pm 12.0 1.6 7.7 75 2.1 SW 52 70 28 38 1014.0 1013.9 0.2
03/01:50pm 13.1 2.1 6.7 65 3.1 SSW 54 72 29 39 1013.8 1013.7 0.0
03/01:30pm 13.7 3.3 7.9 68 2.9 SW 52 67 28 36 1013.7 1013.6 0.0
03/01:24pm 12.9 4.4 8.6 75 2.2 SW 43 54 23 29 1013.9 1013.8 0.0
03/01:00pm 12.3 -0.1 8.0 75 2.1 SSW 63 83 34 45 1013.8 1013.7 0.0
03/12:31pm 14.5 2.9 6.8 60 3.8 SSW 57 78 31 42 1013.9 1013.8 0.0
03/12:30pm 14.4 3.0 6.5 59 3.8 SSW 56 70 30 38 1014.0 1013.9 0.0
03/12:17pm 13.8 3.1 6.4 61 3.6 SSW 52 72 28 39 1014.2 1014.1 0.0
03/12:00pm 14.1 2.1 6.7 61 3.6 SW 59 74 32 40 1014.5 1014.4 0.0
03/11:30am 13.1 0.6 5.8 61 3.4 SSW 61 82 33 44 1014.8 1014.7 0.0
03/11:00am 13.5 1.0 6.1 61 3.5 SSW 61 83 33 45 1014.7 1014.6 0.0
03/10:33am 13.0 0.1 6.1 63 3.3 SSW 63 83 34 45 1015.1 1015.0 0.0
03/10:30am 13.2 0.0 6.3 63 3.3 SSW 65 80 35 43 1015.0 1014.9 0.0
03/10:07am 13.1 1.3 5.5 60 3.6 SSW 57 80 31 43 1014.9 1014.8 0.0
03/10:00am 13.1 1.6 6.2 63 3.3 SW 56 72 30 39 1015.0 1014.9 0.0
03/09:43am 12.9 1.8 6.3 64 3.1 SSW 54 74 29 40 1015.1 1015.0 0.0
03/09:30am 12.7 1.1 5.8 63 3.2 SW 56 69 30 37 1015.1 1015.0 0.0
03/09:10am 12.2 -0.3 5.8 65 3.0 SW 61 80 33 43 1015.1 1015.0 0.0
03/09:00am 12.0 -0.6 5.4 64 3.1 SW 61 80 33 43 1015.1 1015.0 -
03/08:46am 11.9 -0.3 5.5 65 3.0 SW 59 78 32 42 1015.1 1015.0 -
03/08:30am 11.7 -1.8 5.1 64 3.0 SW 65 80 35 43 1015.0 1014.9 -
03/08:00am 11.4 -1.7 4.8 64 3.0 SW 63 78 34 42 1015.1 1015.0 -
03/07:48am 11.3 -1.3 5.4 67 2.7 SW 61 80 33 43 1015.0 1014.9 -
03/07:30am 11.0 -2.1 4.9 66 2.8 SW 63 78 34 42 1015.0 1014.9 -
03/07:19am 10.8 -1.5 5.1 68 2.6 SW 59 82 32 44 1014.9 1014.8 -
03/07:00am 10.3 -2.0 5.1 70 2.4 SW 59 72 32 39 1015.1 1015.0 -
03/06:30am 10.4 -2.7 5.2 70 2.4 SW 63 78 34 42 1014.6 1014.5 -
03/06:00am 10.0 -2.4 4.8 70 2.3 WSW 59 80 32 43 1014.3 1014.2 -
03/05:32am 10.2 -2.0 5.4 72 2.2 SW 59 80 32 43 1014.2 - -
03/05:30am 10.1 -2.6 5.3 72 2.2 SW 61 80 33 43 1014.2 - -
03/05:28am 10.2 -2.0 5.8 74 2.0 SW 59 80 32 43 1014.2 - -
03/05:00am 10.1 -1.4 6.1 76 1.9 SW 56 70 30 38 1014.0 1013.9 -
03/04:41am 9.8 -2.5 5.0 72 2.2 WSW 59 78 32 42 1013.7 - -
03/04:30am 9.8 -2.4 5.4 74 2.0 WSW 59 70 32 38 1013.4 - -
03/04:00am 10.1 -1.7 5.5 73 2.1 WSW 57 69 31 37 1013.2 1013.1 -
03/03:55am 10.4 -1.3 6.0 74 2.0 WSW 57 67 31 36 1013.1 - -
03/03:30am 10.5 -5.0 5.5 71 2.3 SW 76 93 41 50 1012.3 - -
03/03:14am 10.9 -4.1 5.7 70 2.4 SW 74 93 40 50 1012.4 - 5.0
03/03:00am 10.9 -3.2 5.4 69 2.5 SW 69 87 37 47 1012.5 1012.5 5.0
03/02:53am 11.1 -3.0 5.6 69 2.5 SW 69 87 37 47 1012.4 - 5.0
03/02:30am 11.3 -2.8 5.6 68 2.6 SW 69 82 37 44 1012.4 - 5.0
03/02:00am 11.7 -1.0 5.3 65 3.0 SW 61 82 33 44 1012.5 1012.5 5.0
03/01:56am 11.8 -0.7 5.9 67 2.8 SW 61 82 33 44 1012.6 - 5.0
03/01:30am 11.7 -1.5 4.7 62 3.2 SW 63 78 34 42 1012.7 - 5.0
03/01:00am 11.7 -0.2 5.1 64 3.0 SW 57 70 31 38 1013.1 1013.0 5.0
03/12:30am 12.0 -1.4 5.4 64 3.1 SSW 65 85 35 46 1012.9 - 5.0
03/12:28am 12.1 -1.6 5.7 65 3.0 SSW 67 85 36 46 1012.8 - 5.0
03/12:00am 11.8 0.0 5.9 67 2.8 SW 57 70 31 38 1013.3 1013.2 5.0
 
Date/Time
EST
Temp
°C
App
Temp
°C
Dew
Point
Rel
Hum
%
Delta-T
°C
Wind Press
QNH
hPa
Press
MSL
hPa
Rain
since 9 am
mm
Dir
 
Spd
km/h
Gust
km/h
Spd
kts
Gust
kts
02/11:38pm 11.8 -1.4 6.1 68 2.7 SW 65 85 35 46 1012.7 - 5.0
02/11:30pm 11.6 -2.5 5.7 67 2.7 SW 69 85 37 46 1012.6 - 5.0
02/11:04pm 11.4 -1.9 5.7 68 2.6 SW 65 85 35 46 1012.4 - 5.0
02/11:00pm 11.4 -1.5 6.1 70 2.5 SW 63 78 34 42 1012.5 1012.5 5.0
02/10:30pm 11.2 -2.3 6.7 74 2.1 SSW 67 85 36 46 1012.7 - 5.0
02/10:00pm 11.7 -4.0 6.2 69 2.6 SW 78 96 42 52 1011.7 1011.7 5.0
02/09:30pm 11.4 -3.6 5.9 69 2.6 SW 74 100 40 54 1011.8 - 5.0
02/09:10pm 11.5 -2.1 6.2 70 2.5 SW 67 85 36 46 1012.1 - 5.0
02/09:00pm 11.6 -2.3 6.5 71 2.4 SW 69 87 37 47 1012.1 1012.1 5.0
02/08:40pm 11.6 -2.8 6.7 72 2.3 SW 72 93 39 50 1011.8 - 5.0
02/08:30pm 11.7 -2.7 7.0 73 2.3 SW 72 89 39 48 1011.7 - 5.0
02/08:16pm 11.7 -2.3 6.8 72 2.3 SW 70 91 38 49 1011.5 - 5.0
02/08:00pm 11.3 -2.5 7.2 76 2.0 SW 69 83 37 45 1011.2 1011.2 5.0
02/07:39pm 10.6 -1.4 8.0 84 1.3 SW 61 82 33 44 1011.3 - 4.8
02/07:30pm 10.6 -1.3 8.7 88 0.9 SW 61 74 33 40 1011.4 - 4.8
02/07:00pm 10.5 -2.9 8.8 89 0.8 SW 69 91 37 49 1010.5 1010.5 4.8
02/06:58pm 10.3 -2.8 8.4 88 0.9 SW 67 87 36 47 1010.5 - 4.8
02/06:30pm 10.1 -1.9 8.4 89 0.8 SW 61 76 33 41 1010.5 - 4.8
02/06:00pm 9.3 -2.0 7.9 91 0.7 WSW 57 76 31 41 1010.6 1010.6 4.2
02/05:30pm 9.1 -3.5 7.2 88 0.9 WSW 63 76 34 41 1009.6 - 2.8
02/05:13pm 9.6 -2.1 7.9 89 0.8 WSW 59 80 32 43 1009.3 - 1.8
02/05:00pm 9.3 -2.5 7.3 87 0.9 WSW 59 70 32 38 1009.4 1009.4 1.4
02/04:30pm 9.8 -1.6 7.4 85 1.1 WSW 57 72 31 39 1009.4 - 0.6
02/04:00pm 10.4 -1.0 7.5 82 1.4 WSW 57 74 31 40 1009.5 1009.5 0.2
02/03:30pm 11.1 -0.3 7.4 78 1.8 SW 57 70 31 38 1009.0 - 0.2
02/03:00pm 11.5 1.4 7.4 76 2.0 SW 50 59 27 32 1008.9 1008.9 0.2
02/02:30pm 11.8 1.0 7.5 75 2.1 WSW 54 61 29 33 1008.6 - 0.0
02/02:00pm 13.6 3.8 5.5 58 3.8 SW 46 57 25 31 1008.3 1008.3 0.0
02/01:30pm 13.9 4.3 6.3 60 3.6 SW 46 56 25 30 1008.1 - 0.0
02/01:00pm 14.0 3.9 5.9 58 3.9 SSW 48 61 26 33 1008.2 1008.2 0.0
02/12:30pm 14.4 5.4 7.2 62 3.5 SW 44 54 24 29 1008.3 - 0.0
02/12:00pm 14.1 7.7 6.9 62 3.5 SW 30 37 16 20 1008.7 1008.7 0.0
02/11:30am 13.8 8.4 6.4 61 3.6 SW 24 30 13 16 1008.8 - 0.0
02/11:00am 14.1 7.2 6.5 60 3.7 SW 32 41 17 22 1008.9 1008.9 0.0
02/10:30am 14.0 6.5 6.4 60 3.7 SW 35 46 19 25 1008.7 - 0.0
02/10:00am 13.8 7.4 6.9 63 3.4 SW 30 43 16 23 1009.0 1009.0 0.0
02/09:30am 13.1 6.0 6.2 63 3.3 WSW 33 43 18 23 1009.1 - 0.0
02/09:00am 12.7 7.1 7.2 69 2.7 WSW 26 32 14 17 1009.2 1009.2 63.0
02/08:30am 12.6 4.9 7.3 70 2.6 SW 37 46 20 25 1009.0 - 63.0
02/08:00am 12.2 4.2 7.5 73 2.3 SW 39 46 21 25 1008.6 1008.6 63.0
02/07:30am 12.0 3.2 8.1 77 1.9 SW 44 52 24 28 1008.5 - 63.0
02/07:00am 11.4 4.1 8.6 83 1.4 SW 37 44 20 24 1008.1 1008.1 63.0
02/06:30am 11.4 1.5 8.4 82 1.5 SW 50 63 27 34 1007.8 - 63.0
02/06:00am 12.1 1.5 9.8 86 1.2 SW 56 69 30 37 1007.2 1007.2 63.0
02/05:30am 12.5 4.5 11.1 91 0.7 SSW 44 54 24 29 1007.1 - 63.0
02/05:00am 12.7 4.9 11.8 94 0.5 S 44 54 24 29 1006.9 1006.9 62.8
02/04:30am 13.4 7.0 12.0 91 0.8 S 37 48 20 26 1006.9 - 62.6
02/04:00am 14.0 7.9 11.9 87 1.1 S 35 44 19 24 1007.0 1007.0 62.4
02/03:30am 14.5 10.9 12.9 90 0.9 S 24 30 13 16 1007.3 - 62.4
02/03:00am 14.4 10.0 12.8 90 0.9 S 28 35 15 19 1007.2 1007.2 62.4
02/02:30am 14.7 9.5 12.7 88 1.1 S 32 37 17 20 1007.3 - 62.4
02/02:00am 14.8 10.3 12.5 86 1.3 S 28 33 15 18 1007.7 1007.7 62.4
02/01:30am 14.8 8.9 12.3 85 1.4 S 35 43 19 23 1007.6 - 62.4
02/01:00am 15.2 8.6 12.5 84 1.5 S 39 48 21 26 1007.7 1007.7 62.4
02/12:55am 15.4 9.5 12.5 83 1.6 S 35 48 19 26 1007.7 - 62.4
02/12:30am 16.2 12.7 10.9 71 2.8 SW 20 28 11 15 1007.8 - 62.4
02/12:00am 16.9 13.7 11.4 70 3.0 NNW 19 24 10 13 1007.7 1007.7 62.4
 
Date/Time
EST
Temp
°C
App
Temp
°C
Dew
Point
Rel
Hum
%
Delta-T
°C
Wind Press
QNH
hPa
Press
MSL
hPa
Rain
since 9 am
mm
Dir
 
Spd
km/h
Gust
km/h
Spd
kts
Gust
kts
01/11:30pm 16.9 13.6 12.8 77 2.3 N 22 26 12 14 1007.7 - 62.4
01/11:00pm 17.4 14.4 12.7 74 2.6 N 20 26 11 14 1007.9 1007.9 62.4
01/10:30pm 17.6 13.4 12.3 71 2.9 N 26 37 14 20 1007.9 - 62.4
01/10:00pm 18.1 12.7 11.0 63 3.9 N 30 37 16 20 1007.9 1007.9 62.4
01/09:30pm 18.7 13.1 10.3 58 4.5 N 30 37 16 20 1008.0 - 62.4
01/09:00pm 18.7 12.4 9.8 56 4.7 N 33 43 18 23 1008.1 1008.1 62.2
01/08:30pm 17.9 12.1 11.5 66 3.5 NNW 33 43 18 23 1008.1 - 62.0
01/08:00pm 17.7 13.6 11.5 67 3.4 NNW 24 32 13 17 1008.0 1008.0 61.8
01/07:30pm 17.6 14.3 10.9 65 3.6 NNW 19 22 10 12 1008.2 - 50.6
01/07:00pm 17.4 14.4 11.9 70 3.0 NW 19 22 10 12 1008.2 1008.2 26.8
01/06:30pm 17.8 14.1 11.4 66 3.5 NNW 22 32 12 17 1007.9 - 0.0
01/06:00pm 18.1 14.2 12.1 68 3.3 N 24 32 13 17 1007.9 1007.9 0.0
01/05:30pm 18.7 13.3 10.8 60 4.3 N 30 39 16 21 1007.8 - 0.0
01/05:00pm 18.4 13.8 12.4 68 3.4 NNE 28 37 15 20 1007.8 1007.8 0.0
01/04:30pm 17.8 14.4 13.7 77 2.3 NNE 24 30 13 16 1007.6 - 0.0
01/04:00pm 17.9 14.1 13.6 76 2.4 NE 26 32 14 17 1007.7 1007.7 0.0
01/03:30pm 17.9 14.5 13.8 77 2.3 NNE 24 28 13 15 1007.8 - 0.0
01/03:00pm 18.1 15.0 13.4 74 2.7 NNE 22 26 12 14 1008.2 1008.2 0.0
01/02:30pm 18.5 13.9 11.1 62 4.0 NNE 26 30 14 16 1008.2 - 0.0
01/02:00pm 18.6 15.6 12.6 68 3.4 NNE 20 26 11 14 1008.7 1008.7 0.0
01/01:30pm 18.6 16.6 11.4 63 3.9 NNE 13 20 7 11 1009.2 - 0.0
01/01:00pm 17.8 15.0 9.9 60 4.2 NNE 15 17 8 9 1009.5 1009.5 0.0
01/12:30pm 17.9 15.8 11.0 64 3.7 N 13 17 7 9 1010.2 - 0.0
01/12:00pm 17.9 15.0 11.0 64 3.7 N 17 22 9 12 1010.5 1010.5 0.0
01/11:30am 16.8 13.2 10.6 67 3.3 N 20 26 11 14 1011.0 - 0.0
01/11:00am 17.2 13.0 9.9 62 3.9 N 22 32 12 17 1011.4 1011.4 0.0
01/10:30am 16.5 11.2 9.9 65 3.5 N 28 35 15 19 1011.7 - 0.0
01/10:00am 14.4 10.7 9.6 73 2.5 NNW 19 24 10 13 1012.3 1012.3 0.0
01/09:30am 14.3 11.4 10.9 80 1.8 N 17 20 9 11 1012.8 - 0.0
01/09:00am 13.5 10.9 10.7 83 1.5 N 15 19 8 10 1013.1 1013.0 0.0
01/08:30am 13.7 11.7 11.4 86 1.2 NNW 13 17 7 9 1013.4 - 0.0
01/08:00am 12.9 9.8 10.4 85 1.3 NNW 17 20 9 11 1013.5 1013.4 0.0
01/07:30am 12.6 9.4 10.0 84 1.3 NNW 17 22 9 12 1013.4 - 0.0
01/07:00am 12.5 8.6 9.5 82 1.5 NNW 20 24 11 13 1013.3 1013.2 0.0
01/06:30am 12.5 9.4 10.4 87 1.1 NNW 17 22 9 12 1013.4 - 0.0
01/06:00am 11.8 8.5 11.0 95 0.4 NW 19 22 10 12 1013.4 1013.3 0.0
01/05:30am 11.9 8.9 10.8 93 0.6 N 17 19 9 10 1013.2 - 0.0
01/05:00am 11.9 8.9 10.5 91 0.7 N 17 19 9 10 1013.4 1013.3 0.0
01/04:30am 12.1 10.4 11.3 95 0.4 NW 11 13 6 7 1013.2 - 0.0
01/04:00am 12.3 11.0 11.4 94 0.5 NW 9 11 5 6 1013.6 1013.6 0.0
01/03:30am 12.5 10.9 11.6 94 0.5 NNW 11 15 6 8 1013.6 - 0.0
01/03:00am 12.5 10.6 11.7 95 0.4 NNW 13 19 7 10 1013.9 1013.9 0.0
01/02:30am 13.0 10.8 12.1 94 0.5 NW 15 19 8 10 1014.1 - 0.0
01/02:00am 13.2 11.1 12.4 95 0.4 NNW 15 19 8 10 1014.4 1014.4 0.0
01/01:30am 13.1 11.0 12.3 95 0.4 N 15 19 8 10 1014.8 - 0.0
01/01:00am 13.5 12.2 12.6 94 0.5 NNW 11 15 6 8 1015.3 1015.3 0.0
01/12:30am 14.0 12.4 12.9 93 0.6 NNW 13 15 7 8 1015.6 - 0.0
01/12:00am 14.0 12.8 12.9 93 0.6 N 11 13 6 7 1015.7 1015.7 0.0
 
Date/Time
EST
Temp
°C
App
Temp
°C
Dew
Point
Rel
Hum
%
Delta-T
°C
Wind Press
QNH
hPa
Press
MSL
hPa
Rain
since 9 am
mm
Dir
 
Spd
km/h
Gust
km/h
Spd
kts
Gust
kts
31/11:30pm 13.7 12.8 12.6 93 0.6 NW 9 11 5 6 1015.9 - 0.0
31/11:00pm 14.0 13.2 12.9 93 0.6 NW 9 13 5 7 1016.3 1016.3 0.0
31/10:30pm 14.3 13.2 13.0 92 0.7 NNW 11 15 6 8 1016.6 - 0.0
31/10:00pm 14.7 13.2 13.2 91 0.8 NNW 13 17 7 9 1016.8 1016.8 0.0
31/09:30pm 15.5 12.7 13.2 86 1.3 N 20 24 11 13 1017.0 - 0.0
31/09:00pm 15.4 13.1 12.9 85 1.4 N 17 22 9 12 1017.2 1017.2 0.0
31/08:30pm 15.4 12.6 12.7 84 1.5 NNE 19 22 10 12 1017.2 - 0.0
31/08:00pm 15.3 12.4 12.4 83 1.6 NNE 19 20 10 11 1017.3 1017.3 0.0
31/07:30pm 15.3 13.3 12.6 84 1.5 NNE 15 20 8 11 1017.2 - 0.0
31/07:00pm 15.3 12.9 12.8 85 1.4 NNE 17 19 9 10 1017.0 1017.0 0.0
31/06:30pm 15.3 13.3 12.6 84 1.5 NE 15 20 8 11 1016.9 - 0.0
31/06:00pm 15.2 13.0 12.2 82 1.6 NE 15 19 8 10 1016.7 1016.7 0.0
31/05:30pm 15.3 12.4 12.4 83 1.6 NE 19 22 10 12 1016.6 - 0.0
31/05:00pm 15.4 12.3 12.3 82 1.7 NE 20 24 11 13 1016.3 1016.3 0.0

Other Formats:

Comma delimited format used in spreadsheet applications
http://www.bom.gov.au/fwo/IDN60801/IDN60801.94939.axf

JavaScript Object Notation format (JSON) in row-major order
http://www.bom.gov.au/fwo/IDN60801/IDN60801.94939.json